Time;durP1;ratioP1;P1;durP2;ratioP2;P2;SDS_P1;SDS_P2;PMS_P1;PMS_P2;Temp;Humidity;BMP_temperature;BMP_pressure;BME280_temperature;BME280_humidity;BME280_pressure;Samples;Min_cycle;Max_cycle;Signal;HPM_P1;HPM_P2
2023/09/22 00:02:07;;;;;;;2.03;1.50;;;;;;;16.56;56.50;98608.97;10310465;28;20723;-74
2023/09/22 00:07:09;;;;;;;1.77;1.67;;;;;;;15.52;59.24;98608.59;10309042;28;20323;-75
2023/09/22 00:12:11;;;;;;;2.30;1.50;;;;;;;14.47;60.80;98679.91;10311664;28;20293;-74
2023/09/22 00:17:14;;;;;;;1.70;1.57;;;;;;;14.58;60.67;98650.28;10318040;28;20457;-75
2023/09/22 00:22:15;;;;;;;2.67;1.80;;;;;;;16.77;56.90;98498.47;10301471;28;20591;-75
2023/09/22 00:27:17;;;;;;;1.47;1.37;;;;;;;15.51;57.75;98650.09;10315896;28;20300;-77
2023/09/22 00:32:19;;;;;;;1.77;1.57;;;;;;;15.90;57.95;98557.66;10314826;28;20682;-75
2023/09/22 00:37:22;;;;;;;1.67;1.57;;;;;;;15.44;57.86;98638.66;10314611;28;20309;-74
2023/09/22 00:42:23;;;;;;;1.70;1.60;;;;;;;16.00;57.64;98543.50;10315183;28;20234;-74
2023/09/22 00:47:25;;;;;;;1.70;1.60;;;;;;;16.00;56.73;98575.88;10319800;28;20266;-75
2023/09/22 00:52:27;;;;;;;1.70;1.60;;;;;;;15.76;57.29;98624.63;10318123;28;20593;-76
2023/09/22 00:57:29;;;;;;;1.83;1.30;;;;;;;15.73;58.21;98576.56;10320372;28;20535;-74
2023/09/22 01:02:31;;;;;;;4.73;1.90;;;;;;;15.28;58.54;98625.97;10321141;28;20277;-75
2023/09/22 01:07:33;;;;;;;2.53;1.63;;;;;;;15.46;58.01;98612.28;10319607;28;20230;-75
2023/09/22 01:12:35;;;;;;;1.50;1.40;;;;;;;15.68;56.86;98620.47;10320720;28;20305;-76
2023/09/22 01:17:38;;;;;;;1.90;1.80;;;;;;;14.91;58.44;98672.19;10321005;28;20264;-76
2023/09/22 01:22:40;;;;;;;4.57;1.70;;;;;;;14.82;58.36;98655.59;10320838;28;20234;-76
2023/09/22 01:27:42;;;;;;;2.30;1.67;;;;;;;13.77;60.54;98741.50;10319466;28;20234;-75
2023/09/22 01:32:43;;;;;;;2.00;1.80;;;;;;;14.28;59.76;98711.53;10314222;28;20688;-75
2023/09/22 01:38:03;;;;;;;3.70;1.70;;;;;;;13.89;59.48;98732.66;10321384;28;20233;-76
2023/09/22 01:43:04;;;;;;;1.80;1.70;;;;;;;15.96;55.67;98572.84;10336468;28;20241;-77
2023/09/22 01:48:09;;;;;;;1.60;1.50;;;;;;;16.60;53.91;98580.41;10318025;28;20278;-74
2023/09/22 01:53:12;;;;;;;2.70;1.50;;;;;;;16.54;54.51;98567.09;10318690;28;20308;-76
2023/09/22 01:58:14;;;;;;;2.87;1.80;;;;;;;14.74;57.22;98681.00;10314200;28;20240;-74
2023/09/22 02:03:16;;;;;;;2.30;2.10;;;;;;;15.56;55.98;98616.25;10317461;28;20248;-75
2023/09/22 02:08:17;;;;;;;2.07;1.40;;;;;;;15.50;56.37;98632.31;10317824;28;20868;-75
2023/09/22 02:13:19;;;;;;;2.20;1.70;;;;;;;15.76;56.51;98578.78;10317563;28;20627;-75
2023/09/22 02:18:23;;;;;;;2.63;1.80;;;;;;;15.80;55.59;98600.69;10317725;28;20234;-75
2023/09/22 02:23:26;;;;;;;2.37;1.93;;;;;;;14.86;57.72;98654.06;10314738;28;20309;-74
2023/09/22 02:28:28;;;;;;;1.67;1.57;;;;;;;15.03;56.99;98666.75;10313427;28;20233;-75
2023/09/22 02:33:30;;;;;;;2.60;1.60;;;;;;;15.28;57.42;98601.72;10314387;28;20320;-76
2023/09/22 02:38:32;;;;;;;1.80;1.67;;;;;;;15.82;55.56;98598.53;10318887;28;20735;-74
2023/09/22 02:43:34;;;;;;;1.77;1.67;;;;;;;16.48;54.43;98528.41;10315662;28;20237;-74
2023/09/22 02:48:36;;;;;;;1.60;1.50;;;;;;;15.90;55.30;98610.81;10317289;28;20319;-75
2023/09/22 02:53:38;;;;;;;1.57;1.47;;;;;;;15.65;56.14;98591.28;10315515;28;20323;-76
2023/09/22 02:58:39;;;;;;;1.50;1.40;;;;;;;16.12;55.20;98578.44;10313263;28;20242;-76
2023/09/22 03:03:42;;;;;;;1.37;1.20;;;;;;;15.37;56.18;98600.28;10313194;28;20778;-75
2023/09/22 03:08:44;;;;;;;2.40;1.70;;;;;;;16.05;55.51;98548.94;10313096;28;20712;-75
2023/09/22 03:13:47;;;;;;;2.90;1.70;;;;;;;14.70;56.95;98689.81;10315430;28;20238;-76
2023/09/22 03:18:49;;;;;;;2.10;1.80;;;;;;;15.02;56.81;98657.06;10311057;28;20213;-75
2023/09/22 03:23:55;;;;;;;1.80;1.60;;;;;;;14.25;58.29;98696.66;10313969;28;20229;-75
2023/09/22 03:28:57;;;;;;;1.80;1.70;;;;;;;14.54;58.66;98643.75;10308844;28;20265;-75
2023/09/22 03:33:58;;;;;;;1.40;1.30;;;;;;;14.66;57.66;98646.41;10312555;28;20860;-75
2023/09/22 03:39:02;;;;;;;1.67;1.57;;;;;;;16.13;54.72;98562.00;10310030;28;20229;-75
2023/09/22 03:44:04;;;;;;;1.40;1.30;;;;;;;15.45;55.09;98658.34;10310766;28;20276;-75
2023/09/22 03:49:07;;;;;;;2.60;1.30;;;;;;;16.97;52.53;98544.59;10319920;28;20265;-76
2023/09/22 03:54:10;;;;;;;2.03;1.83;;;;;;;16.59;53.00;98584.16;10319111;28;20623;-75
2023/09/22 03:59:12;;;;;;;1.70;1.60;;;;;;;16.47;53.21;98588.88;10318337;28;20790;-75
2023/09/22 04:04:14;;;;;;;1.60;1.50;;;;;;;16.55;53.91;98522.81;10320036;28;20261;-75
2023/09/22 04:09:16;;;;;;;1.40;1.27;;;;;;;16.93;52.04;98602.88;10316774;28;20709;-75
2023/09/22 04:14:19;;;;;;;1.80;1.70;;;;;;;17.85;50.09;98546.03;10316234;28;20326;-75
2023/09/22 04:19:21;;;;;;;1.50;1.40;;;;;;;17.36;50.97;98611.13;10316040;28;20630;-76
2023/09/22 04:24:22;;;;;;;2.10;1.57;;;;;;;17.61;50.48;98585.34;10314960;28;20257;-75
2023/09/22 04:29:25;;;;;;;2.80;1.07;;;;;;;17.72;50.45;98592.50;10313749;28;20236;-75
2023/09/22 04:34:28;;;;;;;2.93;1.50;;;;;;;15.88;53.97;98652.31;10315483;28;20784;-75
2023/09/22 04:39:31;;;;;;;1.43;1.33;;;;;;;16.30;54.03;98604.31;10319229;28;20240;-75
2023/09/22 04:44:33;;;;;;;2.13;1.30;;;;;;;17.48;51.44;98635.31;10320054;28;20241;-74
2023/09/22 04:49:35;;;;;;;4.50;2.07;;;;;;;17.22;51.76;98639.66;10319167;28;20678;-74
2023/09/22 04:54:37;;;;;;;1.53;1.43;;;;;;;16.38;52.41;98753.19;10316016;28;20292;-75
2023/09/22 04:59:40;;;;;;;2.43;1.60;;;;;;;17.07;52.54;98629.50;10315899;28;20244;-75
2023/09/22 05:04:43;;;;;;;3.57;1.90;;;;;;;15.80;54.67;98717.47;10315636;28;20325;-75
2023/09/22 05:09:44;;;;;;;2.37;1.40;;;;;;;14.77;57.98;98637.44;10315871;28;20230;-75
2023/09/22 05:14:46;;;;;;;2.00;1.23;;;;;;;16.14;54.84;98600.59;10315096;28;20230;-75
2023/09/22 05:19:48;;;;;;;2.63;1.30;;;;;;;16.37;54.16;98618.47;10318154;28;20229;-75
2023/09/22 05:24:50;;;;;;;1.30;1.30;;;;;;;16.50;54.24;98658.59;10317409;28;20249;-74
2023/09/22 05:29:53;;;;;;;4.50;1.60;;;;;;;16.34;54.25;98691.84;10310210;28;20238;-76
2023/09/22 05:34:54;;;;;;;2.17;1.30;;;;;;;15.67;55.82;98731.25;10313806;28;20696;-75
2023/09/22 05:39:56;;;;;;;1.60;1.50;;;;;;;15.38;56.53;98747.44;10309000;28;20324;-75
2023/09/22 05:44:59;;;;;;;3.73;1.87;;;;;;;14.32;59.45;98729.63;10315854;28;20258;-76
2023/09/22 05:50:02;;;;;;;2.13;1.60;;;;;;;15.54;56.56;98666.84;10312199;28;20413;-75
2023/09/22 05:55:04;;;;;;;2.50;1.60;;;;;;;15.28;57.71;98671.78;10313027;28;20475;-74
2023/09/22 06:00:10;;;;;;;1.93;1.73;;;;;;;15.78;57.26;98645.97;10310240;28;20226;-76
2023/09/22 06:05:11;;;;;;;1.50;1.40;;;;;;;15.09;58.71;98692.75;10311688;28;20326;-75
2023/09/22 06:10:13;;;;;;;2.13;1.50;;;;;;;15.69;57.44;98650.97;10309341;28;20660;-75
2023/09/22 06:15:15;;;;;;;2.93;1.73;;;;;;;15.35;57.54;98706.69;10313002;28;20561;-75
2023/09/22 06:20:18;;;;;;;1.70;1.60;;;;;;;14.12;60.19;98773.06;10315521;28;20699;-75
2023/09/22 06:25:20;;;;;;;2.03;1.40;;;;;;;16.07;56.29;98663.63;10313829;28;20232;-75
2023/09/22 06:30:23;;;;;;;2.47;1.60;;;;;;;15.44;57.39;98664.81;10312739;28;20696;-76
2023/09/22 06:35:25;;;;;;;1.73;1.40;;;;;;;14.61;59.72;98667.00;10315510;28;20309;-76
2023/09/22 06:40:26;;;;;;;1.30;1.20;;;;;;;14.49;58.53;98684.00;10310561;28;20695;-75
2023/09/22 06:45:28;;;;;;;1.70;1.30;;;;;;;15.87;54.98;98680.34;10311228;28;20255;-75
2023/09/22 06:50:30;;;;;;;1.10;1.10;;;;;;;15.15;57.37;98664.84;10315373;28;20405;-75
2023/09/22 06:55:32;;;;;;;1.60;1.50;;;;;;;15.27;55.89;98761.81;10314816;28;20329;-75
2023/09/22 07:00:34;;;;;;;1.30;1.20;;;;;;;15.63;55.69;98711.25;10319624;28;20738;-75
2023/09/22 07:05:35;;;;;;;1.60;1.50;;;;;;;15.47;56.49;98689.41;10312993;28;20794;-76
2023/09/22 07:10:37;;;;;;;3.27;1.30;;;;;;;15.49;55.14;98746.56;10315085;28;20739;-76
2023/09/22 07:15:40;;;;;;;1.50;1.40;;;;;;;15.04;56.06;98795.84;10312351;28;20287;-76
2023/09/22 07:20:45;;;;;;;1.37;1.27;;;;;;;16.68;53.50;98724.16;10300930;28;20723;-76
2023/09/22 07:26:00;;;;;;;1.50;1.30;;;;;;;15.85;54.88;98752.59;10321579;28;20236;-76
2023/09/22 07:31:18;;;;;;;2.87;1.43;;;;;;;15.59;55.51;98739.75;10321118;28;20332;-75
2023/09/22 07:36:19;;;;;;;1.30;1.20;;;;;;;15.88;54.89;98754.81;10323969;28;20251;-74
2023/09/22 07:41:21;;;;;;;1.50;1.33;;;;;;;16.23;53.85;98750.25;10319049;28;20786;-75
2023/09/22 07:46:23;;;;;;;1.10;1.10;;;;;;;15.68;54.17;98830.81;10320180;28;20264;-76
2023/09/22 07:51:25;;;;;;;3.30;1.60;;;;;;;16.81;52.58;98753.50;10320208;28;20263;-77
2023/09/22 07:56:27;;;;;;;2.40;1.53;;;;;;;16.30;53.03;98794.09;10319489;28;20312;-77
2023/09/22 08:01:29;;;;;;;1.93;1.30;;;;;;;17.05;51.07;98818.13;10318956;28;20325;-74
2023/09/22 08:06:33;;;;;;;1.50;1.30;;;;;;;16.34;52.53;98897.00;10319758;28;20222;-75
2023/09/22 08:11:35;;;;;;;2.50;1.23;;;;;;;17.28;51.39;98815.16;10318163;28;20237;-75
2023/09/22 08:16:37;;;;;;;2.17;1.30;;;;;;;17.86;50.59;98766.00;10317643;28;20234;-75
2023/09/22 08:21:39;;;;;;;2.63;1.40;;;;;;;17.25;51.13;98836.50;10317015;28;20344;-76
2023/09/22 08:26:42;;;;;;;2.67;1.60;;;;;;;16.57;52.67;98833.94;10317884;28;20229;-76
2023/09/22 08:31:43;;;;;;;2.33;1.80;;;;;;;16.64;53.04;98831.88;10319920;28;20352;-75
2023/09/22 08:36:45;;;;;;;1.30;1.30;;;;;;;17.80;50.00;98803.03;10318102;28;20262;-76
2023/09/22 08:41:47;;;;;;;2.07;1.63;;;;;;;17.01;51.68;98842.13;10316549;28;20230;-76
2023/09/22 08:46:49;;;;;;;1.43;1.33;;;;;;;16.84;52.60;98827.81;10311821;28;20648;-76
2023/09/22 08:51:51;;;;;;;1.23;1.20;;;;;;;17.80;50.73;98777.84;10317679;28;20233;-76
2023/09/22 08:56:54;;;;;;;1.40;1.20;;;;;;;16.92;51.61;98863.34;10316458;28;20743;-75
2023/09/22 09:01:58;;;;;;;2.30;1.40;;;;;;;17.65;50.91;98786.66;10320144;28;20332;-76
2023/09/22 09:07:04;;;;;;;1.57;1.37;;;;;;;17.77;50.65;98805.44;10316715;28;20237;-75
2023/09/22 09:12:08;;;;;;;1.67;1.43;;;;;;;16.64;51.18;98885.09;10315169;28;20869;-76
2023/09/22 09:17:19;;;;;;;1.57;1.03;;;;;;;16.85;51.11;98832.97;10318575;28;20261;-76
2023/09/22 09:22:22;;;;;;;2.37;1.50;;;;;;;17.45;51.40;98835.91;10316009;28;20241;-78
2023/09/22 09:27:24;;;;;;;2.83;1.67;;;;;;;16.69;54.45;98799.53;10321585;28;20664;-76
2023/09/22 09:32:27;;;;;;;1.63;1.53;;;;;;;17.51;52.31;98772.69;10317961;28;20322;-75
2023/09/22 09:37:29;;;;;;;3.10;1.77;;;;;;;16.89;53.84;98826.00;10315583;28;20226;-76
2023/09/22 09:42:38;;;;;;;1.70;1.60;;;;;;;17.20;54.53;98750.75;10313685;28;20265;-76
2023/09/22 09:47:44;;;;;;;5.27;1.37;;;;;;;16.48;55.54;98819.19;10313709;28;20241;-76
2023/09/22 09:52:59;;;;;;;3.70;1.80;;;;;;;17.31;54.17;98781.44;10311250;28;20245;-76
2023/09/22 09:58:02;;;;;;;3.17;1.67;;;;;;;16.48;55.70;98779.50;10314907;28;20252;-76
2023/09/22 10:03:08;;;;;;;3.13;1.50;;;;;;;17.12;54.22;98705.22;10320354;28;20938;-75
2023/09/22 10:08:11;;;;;;;2.17;1.30;;;;;;;16.52;54.30;98836.56;10314405;28;20321;-75
2023/09/22 10:13:14;;;;;;;3.07;1.47;;;;;;;17.33;52.78;98736.81;10317699;28;20249;-76
2023/09/22 10:18:17;;;;;;;1.10;1.10;;;;;;;17.64;51.64;98766.09;10312066;28;20777;-75
2023/09/22 10:23:19;;;;;;;2.60;1.33;;;;;;;17.53;51.26;98776.78;10313025;28;20324;-76
2023/09/22 10:28:30;;;;;;;2.20;1.50;;;;;;;16.99;51.42;98838.88;10313378;28;20230;-76
2023/09/22 10:33:32;;;;;;;1.40;1.30;;;;;;;18.72;50.15;98689.13;10311948;28;20236;-74
2023/09/22 10:38:55;;;;;;;4.22;1.52;;;;;;;18.06;50.93;98732.88;10311533;28;20230;-76
2023/09/22 10:43:59;;;;;;;2.00;1.10;;;;;;;16.80;50.80;98858.06;10316174;28;20701;-75
2023/09/22 10:49:01;;;;;;;1.90;0.90;;;;;;;17.94;50.02;98752.00;10316771;28;20294;-75
2023/09/22 10:54:03;;;;;;;1.20;1.10;;;;;;;18.13;48.40;98801.16;10312385;28;20225;-76
2023/09/22 10:59:04;;;;;;;4.68;1.65;;;;;;;18.59;47.50;98828.59;10317172;28;20359;-76
2023/09/22 11:06:17;;;;;;;1.13;1.10;;;;;;;15.88;53.78;98748.63;10563009;27;20704;-75
2023/09/22 11:11:20;;;;;;;1.83;1.40;;;;;;;16.62;52.09;98745.69;10540055;27;20244;-75
2023/09/22 11:16:24;;;;;;;2.13;1.27;;;;;;;16.99;52.21;98704.56;10542822;27;20257;-74
2023/09/22 11:21:37;;;;;;;3.08;1.77;;;;;;;17.01;52.03;98714.31;10538322;28;20234;-75
2023/09/22 11:26:43;;;;;;;1.77;1.63;;;;;;;17.82;50.91;98694.56;10537269;27;20226;-75
2023/09/22 11:31:49;;;;;;;2.33;1.50;;;;;;;16.42;53.88;98708.44;10541523;27;20231;-74
2023/09/22 11:36:52;;;;;;;1.80;1.47;;;;;;;15.31;55.21;98771.84;10532848;28;20254;-76
2023/09/22 11:41:56;;;;;;;1.60;1.50;;;;;;;15.92;54.31;98701.19;10530958;28;20635;-75
2023/09/22 11:46:59;;;;;;;2.17;1.67;;;;;;;16.19;54.18;98663.53;10537831;27;20221;-75
2023/09/22 11:52:01;;;;;;;2.27;1.60;;;;;;;15.86;54.40;98740.78;10534505;28;20238;-76
2023/09/22 11:57:04;;;;;;;2.10;1.60;;;;;;;16.79;52.79;98651.09;10536912;28;20246;-76
2023/09/22 12:02:06;;;;;;;2.15;1.40;;;;;;;16.89;51.61;98696.31;10536925;27;20262;-75
2023/09/22 12:07:09;;;;;;;1.65;1.50;;;;;;;16.72;51.22;98714.47;10537689;27;20226;-76
2023/09/22 12:12:12;;;;;;;1.88;1.60;;;;;;;17.96;49.19;98646.22;10535791;28;20222;-76
2023/09/22 12:17:13;;;;;;;1.40;1.35;;;;;;;16.86;51.04;98717.63;10507675;28;20223;-75
2023/09/22 12:22:15;;;;;;;1.50;1.40;;;;;;;16.94;50.47;98722.59;10508136;28;20322;-75
2023/09/22 12:27:18;;;;;;;2.60;1.80;;;;;;;15.93;51.65;98805.34;10507339;28;20236;-75
2023/09/22 12:32:20;;;;;;;3.30;1.70;;;;;;;17.04;51.04;98684.06;10509657;28;20317;-75
2023/09/22 12:37:21;;;;;;;3.87;1.33;;;;;;;17.44;50.76;98693.66;10505764;28;20226;-75
2023/09/22 12:42:23;;;;;;;1.50;1.38;;;;;;;17.18;51.41;98677.19;10504751;28;20332;-76
2023/09/22 12:47:25;;;;;;;4.50;2.22;;;;;;;17.32;51.83;98688.41;10503472;28;20626;-74
2023/09/22 12:52:27;;;;;;;2.45;1.70;;;;;;;17.16;50.58;98696.38;10504328;28;20573;-75
2023/09/22 12:57:29;;;;;;;3.60;1.50;;;;;;;17.53;49.78;98702.94;10505639;28;20725;-75
2023/09/22 13:02:31;;;;;;;2.00;1.83;;;;;;;16.75;50.34;98728.31;10501888;28;20242;-75
2023/09/22 13:07:33;;;;;;;3.70;1.58;;;;;;;17.87;48.88;98662.13;10506187;28;20235;-75
2023/09/22 13:12:36;;;;;;;1.65;1.50;;;;;;;18.10;47.81;98679.84;10506445;28;20235;-77
2023/09/22 13:17:38;;;;;;;1.65;1.42;;;;;;;17.09;48.51;98722.78;10503495;28;20321;-76
2023/09/22 13:22:41;;;;;;;3.65;1.67;;;;;;;17.29;48.24;98716.78;10503359;28;20290;-74
2023/09/22 13:27:42;;;;;;;1.60;1.50;;;;;;;17.87;47.29;98654.81;10504415;28;20323;-75
2023/09/22 13:32:44;;;;;;;2.78;1.60;;;;;;;17.14;47.69;98776.06;10505875;28;20226;-74
2023/09/22 13:37:46;;;;;;;5.13;1.83;;;;;;;18.14;46.43;98653.91;10502210;28;22382;-75
2023/09/22 13:42:48;;;;;;;3.22;1.80;;;;;;;17.73;47.55;98711.25;10511382;28;20280;-77
2023/09/22 13:47:51;;;;;;;2.60;1.73;;;;;;;17.97;47.87;98673.00;10510407;28;20358;-76
2023/09/22 13:52:53;;;;;;;1.60;1.50;;;;;;;17.85;47.46;98688.59;10506249;28;20280;-76
2023/09/22 13:57:55;;;;;;;1.80;1.70;;;;;;;16.90;47.92;98722.25;10480338;28;20237;-76
2023/09/22 14:02:57;;;;;;;2.97;1.45;;;;;;;17.51;47.99;98657.22;10503982;28;20238;-74
2023/09/22 14:07:59;;;;;;;3.97;1.85;;;;;;;17.44;47.91;98651.19;10500305;28;20227;-74
2023/09/22 14:13:01;;;;;;;2.80;1.80;;;;;;;17.08;48.23;98715.75;10503071;28;20223;-75
2023/09/22 14:18:03;;;;;;;2.92;1.40;;;;;;;17.61;48.12;98607.78;10510201;28;20698;-75
2023/09/22 14:23:05;;;;;;;3.13;1.67;;;;;;;18.58;47.25;98580.44;10483818;28;20231;-75
2023/09/22 14:28:06;;;;;;;3.25;1.67;;;;;;;17.80;47.35;98645.28;10507627;28;22266;-77
2023/09/22 14:33:08;;;;;;;3.58;1.45;;;;;;;17.76;46.69;98687.47;10494074;28;20227;-72
2023/09/22 14:38:10;;;;;;;3.05;1.35;;;;;;;17.12;46.28;98689.84;10486685;28;20226;-74
2023/09/22 14:43:12;;;;;;;3.70;1.60;;;;;;;17.16;46.36;98642.31;10479081;28;20245;-73
2023/09/22 14:48:16;;;;;;;2.47;1.63;;;;;;;16.56;46.16;98749.38;10504058;28;20333;-73
2023/09/22 14:53:18;;;;;;;3.15;1.58;;;;;;;17.74;45.05;98657.97;10499386;28;20230;-73
2023/09/22 14:58:19;;;;;;;2.67;1.63;;;;;;;17.68;44.65;98681.47;10498318;28;20700;-73
2023/09/22 15:03:21;;;;;;;2.88;1.50;;;;;;;17.66;45.15;98653.88;10501428;28;20228;-73
2023/09/22 15:08:23;;;;;;;5.25;2.03;;;;;;;17.13;46.08;98693.38;10490991;28;20680;-74
2023/09/22 15:13:25;;;;;;;2.05;1.33;;;;;;;16.95;45.78;98725.03;10501973;28;20230;-73
2023/09/22 15:18:27;;;;;;;2.13;1.65;;;;;;;17.09;45.69;98703.03;10504633;28;20395;-73
2023/09/22 15:23:28;;;;;;;1.65;1.40;;;;;;;17.11;46.38;98687.41;10501193;28;21593;-74
2023/09/22 15:28:31;;;;;;;2.30;1.50;;;;;;;17.53;45.46;98659.69;10510957;28;20289;-73
2023/09/22 15:33:33;;;;;;;2.10;1.40;;;;;;;17.86;45.08;98664.00;10487374;28;20237;-74
2023/09/22 15:38:37;;;;;;;7.05;1.60;;;;;;;17.44;45.46;98716.09;10505342;28;20645;-73
2023/09/22 15:43:40;;;;;;;1.92;1.40;;;;;;;17.72;46.37;98679.84;10501638;28;20751;-74
2023/09/22 15:48:41;;;;;;;2.03;1.42;;;;;;;17.58;47.47;98684.06;10500467;28;20234;-74
2023/09/22 15:53:43;;;;;;;2.13;1.92;;;;;;;18.03;47.30;98673.84;10509234;28;20650;-73
2023/09/22 15:58:45;;;;;;;3.05;1.80;;;;;;;16.50;49.18;98795.47;10500490;28;20660;-74
2023/09/22 16:03:47;;;;;;;2.08;1.52;;;;;;;13.87;56.94;98680.97;10508604;28;20242;-73
2023/09/22 16:08:49;;;;;;;4.50;1.60;;;;;;;14.07;56.77;98694.09;10502109;28;20219;-73
2023/09/22 16:13:52;;;;;;;5.03;1.90;;;;;;;14.84;56.31;98676.91;10505287;28;21231;-74
2023/09/22 16:18:54;;;;;;;2.10;1.63;;;;;;;14.54;57.29;98676.03;10503903;28;20198;-74
2023/09/22 16:23:55;;;;;;;2.33;1.70;;;;;;;13.28;59.65;98709.38;10506159;28;20630;-74
2023/09/22 16:28:57;;;;;;;3.77;2.03;;;;;;;14.48;58.22;98638.50;10504259;28;20605;-74
2023/09/22 16:34:00;;;;;;;2.80;1.83;;;;;;;14.49;57.70;98642.81;10504754;28;20689;-73
2023/09/22 16:39:02;;;;;;;5.93;1.83;;;;;;;14.28;57.84;98758.09;10500703;28;20210;-73
2023/09/22 16:44:04;;;;;;;2.27;1.70;;;;;;;14.20;56.81;98696.53;10509848;28;20239;-73
2023/09/22 16:49:05;;;;;;;2.10;1.37;;;;;;;14.81;56.50;98706.97;10499925;28;20284;-73
2023/09/22 16:54:07;;;;;;;2.20;1.30;;;;;;;14.05;57.52;98686.22;10499789;28;20625;-72
2023/09/22 16:59:09;;;;;;;3.13;1.80;;;;;;;15.26;55.41;98699.00;10499221;28;20254;-73
2023/09/22 17:04:11;;;;;;;1.70;1.60;;;;;;;14.88;56.92;98702.31;10505419;28;20257;-73
2023/09/22 17:09:13;;;;;;;3.93;1.40;;;;;;;15.62;54.79;98774.31;10505637;28;20227;-71
2023/09/22 17:14:14;;;;;;;2.20;1.73;;;;;;;16.47;52.86;98733.88;10509985;28;20357;-72
2023/09/22 17:19:20;;;;;;;2.07;1.87;;;;;;;15.16;55.26;98870.44;10509718;28;20380;-74
2023/09/22 17:24:22;;;;;;;2.37;1.40;;;;;;;15.60;56.00;98744.09;10501368;28;20788;-71
2023/09/22 17:29:24;;;;;;;2.37;1.60;;;;;;;14.78;57.08;98830.28;10505052;28;20246;-73
2023/09/22 17:34:26;;;;;;;2.03;1.17;;;;;;;16.37;54.23;98765.06;10505879;28;20273;-72
2023/09/22 17:39:28;;;;;;;3.23;1.70;;;;;;;15.78;55.61;98767.34;10493658;28;20233;-72
2023/09/22 17:44:30;;;;;;;1.67;1.30;;;;;;;14.97;57.23;98795.16;10503665;28;20235;-72
2023/09/22 17:49:32;;;;;;;3.07;1.30;;;;;;;14.31;58.65;98816.81;10500103;28;20323;-71
2023/09/22 17:54:34;;;;;;;2.20;1.40;;;;;;;13.14;62.23;98763.47;10501524;28;20706;-73
2023/09/22 17:59:36;;;;;;;10.47;5.63;;;;;;;15.04;57.31;98768.91;10501208;28;20325;-73
2023/09/22 18:04:39;;;;;;;3.90;2.67;;;;;;;14.88;57.39;98775.03;10497127;28;20736;-73
2023/09/22 18:09:41;;;;;;;2.77;2.27;;;;;;;14.21;57.99;98886.53;10502794;28;20437;-72
2023/09/22 18:14:43;;;;;;;2.07;1.73;;;;;;;14.38;57.93;98830.97;10499622;28;20775;-73
2023/09/22 18:19:47;;;;;;;2.57;1.90;;;;;;;15.31;55.80;98824.94;10507387;28;20268;-72
2023/09/22 18:24:51;;;;;;;1.70;1.60;;;;;;;14.13;57.38;98949.53;10504494;28;20321;-73
2023/09/22 18:29:53;;;;;;;1.60;1.50;;;;;;;14.27;57.94;98858.69;10503866;28;20238;-73
2023/09/22 18:34:55;;;;;;;2.40;2.17;;;;;;;15.03;56.39;98818.47;10500840;28;20226;-72
2023/09/22 18:39:57;;;;;;;3.63;2.00;;;;;;;14.13;58.55;98921.84;10504800;28;20257;-73
2023/09/22 18:44:59;;;;;;;3.10;1.83;;;;;;;14.46;57.79;98880.13;10501520;28;20292;-73
2023/09/22 18:50:03;;;;;;;3.80;1.97;;;;;;;14.72;57.29;98868.09;10504484;28;20759;-72
2023/09/22 18:55:06;;;;;;;2.60;1.30;;;;;;;14.31;57.74;98894.84;10481786;28;20249;-72
2023/09/22 19:00:08;;;;;;;1.57;1.43;;;;;;;14.69;57.21;98865.88;10502119;28;20257;-71
2023/09/22 19:05:11;;;;;;;3.20;1.70;;;;;;;14.02;58.66;98920.72;10501504;28;20353;-74
2023/09/22 19:10:14;;;;;;;1.73;1.60;;;;;;;13.62;58.39;98986.56;10497891;28;20713;-72
2023/09/22 19:15:15;;;;;;;2.77;1.70;;;;;;;14.22;57.83;98931.22;10496282;28;20720;-73
2023/09/22 19:20:17;;;;;;;2.70;1.50;;;;;;;15.02;56.37;98903.03;10498218;28;20230;-71
2023/09/22 19:25:21;;;;;;;1.87;1.57;;;;;;;15.05;56.17;98939.44;10511687;28;20574;-74
2023/09/22 19:30:23;;;;;;;1.63;1.50;;;;;;;14.46;56.89;98993.19;10510404;28;20226;-74
2023/09/22 19:35:25;;;;;;;2.80;1.83;;;;;;;14.19;58.02;98985.50;10502158;28;20664;-72
2023/09/22 19:40:26;;;;;;;5.23;1.67;;;;;;;13.36;59.23;99078.19;10505485;28;20230;-71
2023/09/22 19:45:28;;;;;;;3.23;1.60;;;;;;;13.97;58.45;99002.09;10507642;28;20579;-72
2023/09/22 19:50:32;;;;;;;3.13;1.73;;;;;;;15.40;55.19;98977.13;10516273;28;20222;-72
2023/09/22 19:55:34;;;;;;;2.53;1.70;;;;;;;14.37;57.43;99078.81;10510114;28;20608;-73
2023/09/22 20:00:39;;;;;;;1.67;1.57;;;;;;;14.70;56.02;99043.34;10509242;28;20246;-72
2023/09/22 20:05:47;;;;;;;2.83;1.40;;;;;;;13.39;58.88;99100.06;10454743;28;20242;-73
2023/09/22 20:10:59;;;;;;;2.00;1.80;;;;;;;13.88;57.43;99049.13;10464428;28;20314;-73
2023/09/22 20:16:04;;;;;;;1.70;1.60;;;;;;;14.74;54.84;99016.78;10466009;28;20647;-73
2023/09/22 20:21:06;;;;;;;2.73;1.57;;;;;;;13.28;56.91;99178.72;10463016;28;20224;-73
2023/09/22 20:26:09;;;;;;;1.73;1.63;;;;;;;14.38;55.31;99078.59;10461798;28;20271;-74
2023/09/22 20:31:13;;;;;;;1.67;1.50;;;;;;;13.71;56.76;99109.94;10467424;28;20572;-73
2023/09/22 20:36:15;;;;;;;2.30;1.47;;;;;;;13.09;56.58;99204.63;10465701;28;20223;-75
2023/09/22 20:41:19;;;;;;;2.10;1.80;;;;;;;12.77;56.89;99183.09;10463966;28;20223;-76
2023/09/22 20:46:22;;;;;;;1.30;1.20;;;;;;;13.62;54.93;99096.78;10469383;28;20222;-75
2023/09/22 20:51:24;;;;;;;1.73;1.63;;;;;;;13.87;54.90;99077.09;10440780;28;20231;-75
2023/09/22 20:56:26;;;;;;;1.60;1.50;;;;;;;12.93;55.69;99208.63;10463905;28;20593;-74
2023/09/22 21:01:37;;;;;;;3.13;1.57;;;;;;;12.24;57.15;99176.03;10446642;28;20318;-74
2023/09/22 21:06:40;;;;;;;3.13;1.53;;;;;;;12.52;56.58;99148.13;10500353;28;20363;-74
2023/09/22 21:11:42;;;;;;;1.60;1.50;;;;;;;13.75;54.30;99081.56;10486661;28;20227;-75
2023/09/22 21:16:44;;;;;;;1.60;1.50;;;;;;;13.58;53.95;99165.47;10497621;28;20260;-74
2023/09/22 21:21:46;;;;;;;2.40;2.07;;;;;;;14.12;52.83;99205.34;10485685;28;20242;-75
2023/09/22 21:26:48;;;;;;;1.73;1.63;;;;;;;13.24;54.65;99282.25;10501740;28;20301;-75
2023/09/22 21:31:50;;;;;;;1.80;1.70;;;;;;;13.89;53.95;99249.00;10488112;28;20234;-75
2023/09/22 21:36:52;;;;;;;1.60;1.50;;;;;;;14.17;53.79;99189.38;10497078;28;20293;-75
2023/09/22 21:41:55;;;;;;;1.57;1.47;;;;;;;13.36;54.69;99272.53;10503773;28;20230;-75
2023/09/22 21:46:57;;;;;;;2.47;1.40;;;;;;;13.26;54.91;99248.75;10503440;28;20627;-75
2023/09/22 21:51:59;;;;;;;2.00;1.80;;;;;;;13.18;54.93;99219.47;10507783;28;20372;-75
2023/09/22 21:57:01;;;;;;;1.73;1.63;;;;;;;12.91;54.51;99302.03;10486842;28;20315;-75
2023/09/22 22:02:04;;;;;;;1.43;1.30;;;;;;;12.75;54.73;99303.28;10502227;28;20832;-75
2023/09/22 22:07:10;;;;;;;1.67;1.57;;;;;;;13.12;53.62;99287.47;10499671;28;20235;-76
2023/09/22 22:12:12;;;;;;;1.73;1.40;;;;;;;13.13;54.02;99294.50;10500991;28;20363;-74
2023/09/22 22:17:14;;;;;;;1.43;1.43;;;;;;;13.02;53.72;99313.94;10499767;28;20623;-77
2023/09/22 22:22:18;;;;;;;1.20;1.20;;;;;;;;;;10501596;28;20254;-74
2023/09/22 22:27:20;;;;;;;1.63;1.50;;;;;;;12.82;54.78;99311.31;10499611;28;20230;-76
2023/09/22 22:32:24;;;;;;;3.33;1.70;;;;;;;12.27;55.13;99400.13;10500450;28;20317;-77
2023/09/22 22:37:30;;;;;;;2.53;1.50;;;;;;;12.36;55.71;99351.41;10502196;28;20735;-74
2023/09/22 22:42:32;;;;;;;1.60;1.60;;;;;;;12.49;55.71;99312.22;10502498;28;20287;-76
2023/09/22 22:47:37;;;;;;;2.40;1.87;;;;;;;12.66;54.29;99380.53;10498126;28;20231;-76
2023/09/22 22:52:39;;;;;;;3.43;1.43;;;;;;;13.05;54.04;99326.97;10499922;28;20238;-75
2023/09/22 22:57:41;;;;;;;1.70;1.60;;;;;;;12.37;55.08;99379.09;10500336;28;20234;-74
2023/09/22 23:02:42;;;;;;;2.47;1.50;;;;;;;12.60;55.23;99326.88;10498289;28;20245;-76
2023/09/22 23:07:46;;;;;;;1.63;1.60;;;;;;;12.36;55.35;99353.28;10500528;28;20325;-76
2023/09/22 23:12:48;;;;;;;1.60;1.47;;;;;;;12.13;55.64;99389.38;10499992;28;20686;-76
2023/09/22 23:17:52;;;;;;;1.70;1.60;;;;;;;12.34;54.59;99443.88;10503049;28;20740;-76
2023/09/22 23:22:56;;;;;;;1.10;1.10;;;;;;;11.65;56.17;99480.59;10500689;28;20241;-75
2023/09/22 23:27:58;;;;;;;1.63;1.50;;;;;;;13.33;53.37;99307.88;10498199;28;20242;-75
2023/09/22 23:33:02;;;;;;;1.50;1.40;;;;;;;12.95;53.86;99362.31;10500743;28;20625;-75